sensor_id;sensor_type;location;lat;lon;timestamp;temperature;humidity
9414;DHT22;4746;35.664;139.738;2022-07-05T00:00:33;29.40;99.90
9414;DHT22;4746;35.664;139.738;2022-07-05T00:03:01;29.30;99.90
9414;DHT22;4746;35.664;139.738;2022-07-05T00:05:28;29.30;99.90
9414;DHT22;4746;35.664;139.738;2022-07-05T00:07:56;29.30;99.90
9414;DHT22;4746;35.664;139.738;2022-07-05T00:10:24;29.40;99.90
9414;DHT22;4746;35.664;139.738;2022-07-05T00:12:51;29.40;99.90
9414;DHT22;4746;35.664;139.738;2022-07-05T00:15:19;29.60;99.90
9414;DHT22;4746;35.664;139.738;2022-07-05T00:17:48;29.70;99.90
9414;DHT22;4746;35.664;139.738;2022-07-05T00:20:16;29.80;99.90
9414;DHT22;4746;35.664;139.738;2022-07-05T00:22:44;29.90;99.90
9414;DHT22;4746;35.664;139.738;2022-07-05T00:25:11;30.10;99.90
9414;DHT22;4746;35.664;139.738;2022-07-05T00:27:39;30.20;99.90
9414;DHT22;4746;35.664;139.738;2022-07-05T00:30:08;30.20;99.90
9414;DHT22;4746;35.664;139.738;2022-07-05T00:32:37;30.30;99.90
9414;DHT22;4746;35.664;139.738;2022-07-05T00:35:07;30.40;99.90
9414;DHT22;4746;35.664;139.738;2022-07-05T00:37:35;30.30;99.90
9414;DHT22;4746;35.664;139.738;2022-07-05T00:40:04;30.10;99.90
9414;DHT22;4746;35.664;139.738;2022-07-05T00:42:34;30.00;99.90
9414;DHT22;4746;35.664;139.738;2022-07-05T00:45:06;30.00;99.90
9414;DHT22;4746;35.664;139.738;2022-07-05T00:47:34;29.90;99.90
9414;DHT22;4746;35.664;139.738;2022-07-05T00:50:02;29.70;99.90
9414;DHT22;4746;35.664;139.738;2022-07-05T00:52:30;29.70;99.90
9414;DHT22;4746;35.664;139.738;2022-07-05T00:54:58;29.90;99.90
9414;DHT22;4746;35.664;139.738;2022-07-05T00:57:26;30.00;99.90
9414;DHT22;4746;35.664;139.738;2022-07-05T00:59:53;29.90;99.90
9414;DHT22;4746;35.664;139.738;2022-07-05T01:02:21;30.00;99.90
9414;DHT22;4746;35.664;139.738;2022-07-05T01:04:50;30.10;99.90
9414;DHT22;4746;35.664;139.738;2022-07-05T01:07:21;30.10;99.90
9414;DHT22;4746;35.664;139.738;2022-07-05T01:09:50;30.20;99.90
9414;DHT22;4746;35.664;139.738;2022-07-05T01:12:18;30.40;99.90
9414;DHT22;4746;35.664;139.738;2022-07-05T01:14:46;30.50;99.90
9414;DHT22;4746;35.664;139.738;2022-07-05T01:17:15;30.60;99.90
9414;DHT22;4746;35.664;139.738;2022-07-05T01:19:43;30.80;99.90
9414;DHT22;4746;35.664;139.738;2022-07-05T01:22:19;30.90;99.90
9414;DHT22;4746;35.664;139.738;2022-07-05T01:24:48;30.90;99.90
9414;DHT22;4746;35.664;139.738;2022-07-05T01:27:19;30.90;99.90
9414;DHT22;4746;35.664;139.738;2022-07-05T01:29:47;30.70;99.90
9414;DHT22;4746;35.664;139.738;2022-07-05T01:32:15;30.60;99.90
9414;DHT22;4746;35.664;139.738;2022-07-05T01:34:43;30.70;99.90
9414;DHT22;4746;35.664;139.738;2022-07-05T01:37:11;30.90;99.90
9414;DHT22;4746;35.664;139.738;2022-07-05T01:39:39;31.00;99.90
9414;DHT22;4746;35.664;139.738;2022-07-05T01:42:07;31.10;99.90
9414;DHT22;4746;35.664;139.738;2022-07-05T01:44:35;31.00;99.90
9414;DHT22;4746;35.664;139.738;2022-07-05T01:47:06;30.90;99.90
9414;DHT22;4746;35.664;139.738;2022-07-05T01:49:46;30.90;99.90
9414;DHT22;4746;35.664;139.738;2022-07-05T01:52:17;30.80;99.90
9414;DHT22;4746;35.664;139.738;2022-07-05T01:54:51;30.80;99.90
9414;DHT22;4746;35.664;139.738;2022-07-05T01:57:18;30.80;99.90
9414;DHT22;4746;35.664;139.738;2022-07-05T01:59:46;30.80;99.90
9414;DHT22;4746;35.664;139.738;2022-07-05T02:02:17;30.60;99.90
9414;DHT22;4746;35.664;139.738;2022-07-05T02:04:45;30.60;99.90
9414;DHT22;4746;35.664;139.738;2022-07-05T02:07:12;30.60;99.90
9414;DHT22;4746;35.664;139.738;2022-07-05T02:09:40;30.80;99.90
9414;DHT22;4746;35.664;139.738;2022-07-05T02:12:09;30.80;99.90
9414;DHT22;4746;35.664;139.738;2022-07-05T02:14:37;30.60;99.90
9414;DHT22;4746;35.664;139.738;2022-07-05T02:17:04;30.80;99.90
9414;DHT22;4746;35.664;139.738;2022-07-05T02:19:34;30.80;99.90
9414;DHT22;4746;35.664;139.738;2022-07-05T02:22:05;30.80;99.90
9414;DHT22;4746;35.664;139.738;2022-07-05T02:24:34;30.70;99.90
9414;DHT22;4746;35.664;139.738;2022-07-05T02:27:01;30.80;99.90
9414;DHT22;4746;35.664;139.738;2022-07-05T02:29:29;31.00;99.90
9414;DHT22;4746;35.664;139.738;2022-07-05T02:31:57;31.10;99.90
9414;DHT22;4746;35.664;139.738;2022-07-05T02:34:24;31.30;99.90
9414;DHT22;4746;35.664;139.738;2022-07-05T02:36:52;31.30;99.90
9414;DHT22;4746;35.664;139.738;2022-07-05T02:39:20;31.20;99.90
9414;DHT22;4746;35.664;139.738;2022-07-05T02:41:47;31.30;99.90
9414;DHT22;4746;35.664;139.738;2022-07-05T02:44:15;31.40;99.90
9414;DHT22;4746;35.664;139.738;2022-07-05T02:46:42;31.40;99.90
9414;DHT22;4746;35.664;139.738;2022-07-05T02:49:10;31.30;99.90
9414;DHT22;4746;35.664;139.738;2022-07-05T02:51:37;31.40;99.90
9414;DHT22;4746;35.664;139.738;2022-07-05T02:54:05;31.50;99.90
9414;DHT22;4746;35.664;139.738;2022-07-05T02:56:33;31.40;99.90
9414;DHT22;4746;35.664;139.738;2022-07-05T02:59:00;31.50;99.90
9414;DHT22;4746;35.664;139.738;2022-07-05T03:01:28;31.60;99.90
9414;DHT22;4746;35.664;139.738;2022-07-05T03:03:57;31.60;99.90
9414;DHT22;4746;35.664;139.738;2022-07-05T03:06:25;31.50;99.90
9414;DHT22;4746;35.664;139.738;2022-07-05T03:08:53;31.60;99.90
9414;DHT22;4746;35.664;139.738;2022-07-05T03:11:20;31.50;99.90
9414;DHT22;4746;35.664;139.738;2022-07-05T03:13:48;31.10;99.90
9414;DHT22;4746;35.664;139.738;2022-07-05T03:16:15;30.90;99.90
9414;DHT22;4746;35.664;139.738;2022-07-05T03:18:43;30.60;99.90
9414;DHT22;4746;35.664;139.738;2022-07-05T03:21:11;30.80;99.90
9414;DHT22;4746;35.664;139.738;2022-07-05T03:23:38;30.80;99.90
9414;DHT22;4746;35.664;139.738;2022-07-05T03:26:06;30.90;99.90
9414;DHT22;4746;35.664;139.738;2022-07-05T03:28:33;30.60;99.90
9414;DHT22;4746;35.664;139.738;2022-07-05T03:31:01;30.70;99.90
9414;DHT22;4746;35.664;139.738;2022-07-05T03:33:29;30.50;99.90
9414;DHT22;4746;35.664;139.738;2022-07-05T03:35:57;30.50;99.90
9414;DHT22;4746;35.664;139.738;2022-07-05T03:38:25;30.40;99.90
9414;DHT22;4746;35.664;139.738;2022-07-05T03:40:53;30.30;99.90
9414;DHT22;4746;35.664;139.738;2022-07-05T03:43:20;30.20;99.90
9414;DHT22;4746;35.664;139.738;2022-07-05T03:45:48;30.00;99.90
9414;DHT22;4746;35.664;139.738;2022-07-05T03:48:15;29.70;99.90
9414;DHT22;4746;35.664;139.738;2022-07-05T03:50:43;29.20;99.90
9414;DHT22;4746;35.664;139.738;2022-07-05T03:53:11;28.80;99.90
9414;DHT22;4746;35.664;139.738;2022-07-05T03:55:39;28.70;99.90
9414;DHT22;4746;35.664;139.738;2022-07-05T03:58:06;28.40;99.90
9414;DHT22;4746;35.664;139.738;2022-07-05T04:00:34;28.40;99.90
9414;DHT22;4746;35.664;139.738;2022-07-05T04:03:01;28.50;99.90
9414;DHT22;4746;35.664;139.738;2022-07-05T04:05:29;28.60;99.90
9414;DHT22;4746;35.664;139.738;2022-07-05T04:07:57;28.40;99.90
9414;DHT22;4746;35.664;139.738;2022-07-05T04:10:25;28.40;99.90
9414;DHT22;4746;35.664;139.738;2022-07-05T04:12:53;28.30;99.90
9414;DHT22;4746;35.664;139.738;2022-07-05T04:15:21;28.20;99.90
9414;DHT22;4746;35.664;139.738;2022-07-05T04:17:54;28.20;99.90
9414;DHT22;4746;35.664;139.738;2022-07-05T04:20:23;28.10;99.90
9414;DHT22;4746;35.664;139.738;2022-07-05T04:22:51;27.90;99.90
9414;DHT22;4746;35.664;139.738;2022-07-05T04:25:19;28.00;99.90
9414;DHT22;4746;35.664;139.738;2022-07-05T04:27:52;27.80;99.90
9414;DHT22;4746;35.664;139.738;2022-07-05T04:30:23;27.90;99.90
9414;DHT22;4746;35.664;139.738;2022-07-05T04:32:52;27.70;99.90
9414;DHT22;4746;35.664;139.738;2022-07-05T04:35:20;27.60;99.90
9414;DHT22;4746;35.664;139.738;2022-07-05T04:37:48;27.40;99.90
9414;DHT22;4746;35.664;139.738;2022-07-05T04:40:16;27.40;99.90
9414;DHT22;4746;35.664;139.738;2022-07-05T04:42:43;27.30;99.90
9414;DHT22;4746;35.664;139.738;2022-07-05T04:45:11;27.50;99.90
9414;DHT22;4746;35.664;139.738;2022-07-05T04:47:38;27.50;99.90
9414;DHT22;4746;35.664;139.738;2022-07-05T04:50:07;27.50;99.90
9414;DHT22;4746;35.664;139.738;2022-07-05T04:52:35;27.40;99.90
9414;DHT22;4746;35.664;139.738;2022-07-05T04:55:03;27.40;99.90
9414;DHT22;4746;35.664;139.738;2022-07-05T04:57:41;26.90;99.90
9414;DHT22;4746;35.664;139.738;2022-07-05T05:00:11;27.10;99.90
9414;DHT22;4746;35.664;139.738;2022-07-05T05:02:41;27.10;99.90
9414;DHT22;4746;35.664;139.738;2022-07-05T05:05:09;27.20;99.90
9414;DHT22;4746;35.664;139.738;2022-07-05T05:07:36;27.30;99.90
9414;DHT22;4746;35.664;139.738;2022-07-05T05:10:08;27.30;99.90
9414;DHT22;4746;35.664;139.738;2022-07-05T05:12:36;27.30;99.90
9414;DHT22;4746;35.664;139.738;2022-07-05T05:15:04;27.20;99.90
9414;DHT22;4746;35.664;139.738;2022-07-05T05:17:38;27.30;99.90
9414;DHT22;4746;35.664;139.738;2022-07-05T05:20:14;27.10;99.90
9414;DHT22;4746;35.664;139.738;2022-07-05T05:22:43;27.10;99.90
9414;DHT22;4746;35.664;139.738;2022-07-05T05:25:12;27.00;99.90
9414;DHT22;4746;35.664;139.738;2022-07-05T05:27:48;27.20;99.90
9414;DHT22;4746;35.664;139.738;2022-07-05T05:30:20;27.30;99.90
9414;DHT22;4746;35.664;139.738;2022-07-05T05:32:47;27.30;99.90
9414;DHT22;4746;35.664;139.738;2022-07-05T05:35:15;27.30;99.90
9414;DHT22;4746;35.664;139.738;2022-07-05T05:37:52;27.50;99.90
9414;DHT22;4746;35.664;139.738;2022-07-05T05:40:22;27.50;99.90
9414;DHT22;4746;35.664;139.738;2022-07-05T05:42:52;27.50;99.90
9414;DHT22;4746;35.664;139.738;2022-07-05T05:45:20;27.30;99.90
9414;DHT22;4746;35.664;139.738;2022-07-05T05:47:56;27.50;99.90
9414;DHT22;4746;35.664;139.738;2022-07-05T05:52:58;27.80;99.90
9414;DHT22;4746;35.664;139.738;2022-07-05T05:55:28;27.90;99.90
9414;DHT22;4746;35.664;139.738;2022-07-05T05:58:09;27.80;99.90
9414;DHT22;4746;35.664;139.738;2022-07-05T06:00:42;27.70;99.90
9414;DHT22;4746;35.664;139.738;2022-07-05T06:03:15;27.70;99.90
9414;DHT22;4746;35.664;139.738;2022-07-05T06:05:43;27.70;99.90
9414;DHT22;4746;35.664;139.738;2022-07-05T06:08:10;27.50;99.90
9414;DHT22;4746;35.664;139.738;2022-07-05T06:10:39;27.50;99.90
9414;DHT22;4746;35.664;139.738;2022-07-05T06:13:09;27.50;99.90
9414;DHT22;4746;35.664;139.738;2022-07-05T06:15:39;27.50;99.90
9414;DHT22;4746;35.664;139.738;2022-07-05T06:18:09;27.50;99.90
9414;DHT22;4746;35.664;139.738;2022-07-05T06:20:38;27.50;99.90
9414;DHT22;4746;35.664;139.738;2022-07-05T06:23:07;27.40;99.90
9414;DHT22;4746;35.664;139.738;2022-07-05T06:25:35;27.30;99.90
9414;DHT22;4746;35.664;139.738;2022-07-05T06:28:06;27.40;99.90
9414;DHT22;4746;35.664;139.738;2022-07-05T06:30:36;27.40;99.90
9414;DHT22;4746;35.664;139.738;2022-07-05T06:33:05;27.40;99.90
9414;DHT22;4746;35.664;139.738;2022-07-05T06:35:33;27.30;99.90
9414;DHT22;4746;35.664;139.738;2022-07-05T06:38:09;27.30;99.90
9414;DHT22;4746;35.664;139.738;2022-07-05T06:40:41;27.30;99.90
9414;DHT22;4746;35.664;139.738;2022-07-05T06:43:11;27.30;99.90
9414;DHT22;4746;35.664;139.738;2022-07-05T06:45:40;27.30;99.90
9414;DHT22;4746;35.664;139.738;2022-07-05T06:48:10;27.30;99.90
9414;DHT22;4746;35.664;139.738;2022-07-05T06:50:41;27.30;99.90
9414;DHT22;4746;35.664;139.738;2022-07-05T06:53:10;27.40;99.90
9414;DHT22;4746;35.664;139.738;2022-07-05T06:55:38;27.40;99.90
9414;DHT22;4746;35.664;139.738;2022-07-05T06:58:11;27.40;99.90
9414;DHT22;4746;35.664;139.738;2022-07-05T07:00:39;27.40;99.90
9414;DHT22;4746;35.664;139.738;2022-07-05T07:03:08;27.40;99.90
9414;DHT22;4746;35.664;139.738;2022-07-05T07:05:37;27.30;99.90
9414;DHT22;4746;35.664;139.738;2022-07-05T07:08:04;27.30;99.90
9414;DHT22;4746;35.664;139.738;2022-07-05T07:10:50;27.30;99.90
9414;DHT22;4746;35.664;139.738;2022-07-05T07:13:17;27.30;99.90
9414;DHT22;4746;35.664;139.738;2022-07-05T07:15:46;27.30;99.90
9414;DHT22;4746;35.664;139.738;2022-07-05T07:18:14;27.30;99.90
9414;DHT22;4746;35.664;139.738;2022-07-05T07:20:42;27.20;99.90
9414;DHT22;4746;35.664;139.738;2022-07-05T07:23:10;27.10;99.90
9414;DHT22;4746;35.664;139.738;2022-07-05T07:25:37;27.00;99.90
9414;DHT22;4746;35.664;139.738;2022-07-05T07:28:05;27.00;99.90
9414;DHT22;4746;35.664;139.738;2022-07-05T07:30:33;27.00;99.90
9414;DHT22;4746;35.664;139.738;2022-07-05T07:33:00;27.00;99.90
9414;DHT22;4746;35.664;139.738;2022-07-05T07:35:28;26.90;99.90
9414;DHT22;4746;35.664;139.738;2022-07-05T07:37:56;27.00;99.90
9414;DHT22;4746;35.664;139.738;2022-07-05T07:40:23;26.90;99.90
9414;DHT22;4746;35.664;139.738;2022-07-05T07:42:53;26.90;99.90
9414;DHT22;4746;35.664;139.738;2022-07-05T07:45:21;26.70;99.90
9414;DHT22;4746;35.664;139.738;2022-07-05T07:47:48;26.60;99.90
9414;DHT22;4746;35.664;139.738;2022-07-05T07:50:16;26.50;99.90
9414;DHT22;4746;35.664;139.738;2022-07-05T07:52:43;26.30;99.90
9414;DHT22;4746;35.664;139.738;2022-07-05T07:55:11;26.30;99.90
9414;DHT22;4746;35.664;139.738;2022-07-05T07:57:39;26.20;99.90
9414;DHT22;4746;35.664;139.738;2022-07-05T08:00:07;26.20;99.90
9414;DHT22;4746;35.664;139.738;2022-07-05T08:02:35;26.30;99.90
9414;DHT22;4746;35.664;139.738;2022-07-05T08:05:03;26.30;99.90
9414;DHT22;4746;35.664;139.738;2022-07-05T08:07:31;26.30;99.90
9414;DHT22;4746;35.664;139.738;2022-07-05T08:09:59;26.40;99.90
9414;DHT22;4746;35.664;139.738;2022-07-05T08:12:27;26.30;99.90
9414;DHT22;4746;35.664;139.738;2022-07-05T08:14:55;26.30;99.90
9414;DHT22;4746;35.664;139.738;2022-07-05T08:17:22;26.20;99.90
9414;DHT22;4746;35.664;139.738;2022-07-05T08:19:50;26.20;99.90
9414;DHT22;4746;35.664;139.738;2022-07-05T08:22:36;26.20;99.90
9414;DHT22;4746;35.664;139.738;2022-07-05T08:25:03;26.20;99.90
9414;DHT22;4746;35.664;139.738;2022-07-05T08:27:31;26.20;99.90
9414;DHT22;4746;35.664;139.738;2022-07-05T08:29:59;26.20;99.90
9414;DHT22;4746;35.664;139.738;2022-07-05T08:32:26;26.20;99.90
9414;DHT22;4746;35.664;139.738;2022-07-05T08:34:54;26.20;99.90
9414;DHT22;4746;35.664;139.738;2022-07-05T08:37:22;26.20;99.90
9414;DHT22;4746;35.664;139.738;2022-07-05T08:39:49;26.20;99.90
9414;DHT22;4746;35.664;139.738;2022-07-05T08:42:17;26.10;99.90
9414;DHT22;4746;35.664;139.738;2022-07-05T08:44:46;26.10;99.90
9414;DHT22;4746;35.664;139.738;2022-07-05T08:47:18;26.20;99.90
9414;DHT22;4746;35.664;139.738;2022-07-05T08:49:48;26.20;99.90
9414;DHT22;4746;35.664;139.738;2022-07-05T08:52:21;26.20;99.90
9414;DHT22;4746;35.664;139.738;2022-07-05T08:54:51;26.20;99.90
9414;DHT22;4746;35.664;139.738;2022-07-05T08:57:19;26.10;99.90
9414;DHT22;4746;35.664;139.738;2022-07-05T08:59:47;26.00;99.90
9414;DHT22;4746;35.664;139.738;2022-07-05T09:02:16;26.00;99.90
9414;DHT22;4746;35.664;139.738;2022-07-05T09:04:46;25.90;99.90
9414;DHT22;4746;35.664;139.738;2022-07-05T09:07:17;26.00;99.90
9414;DHT22;4746;35.664;139.738;2022-07-05T09:09:48;26.00;99.90
9414;DHT22;4746;35.664;139.738;2022-07-05T09:12:17;26.10;99.90
9414;DHT22;4746;35.664;139.738;2022-07-05T09:14:45;26.10;99.90
9414;DHT22;4746;35.664;139.738;2022-07-05T09:17:13;26.10;99.90
9414;DHT22;4746;35.664;139.738;2022-07-05T09:19:42;26.10;99.90
9414;DHT22;4746;35.664;139.738;2022-07-05T09:22:09;26.10;99.90
9414;DHT22;4746;35.664;139.738;2022-07-05T09:24:44;25.90;99.90
9414;DHT22;4746;35.664;139.738;2022-07-05T09:27:12;25.90;99.90
9414;DHT22;4746;35.664;139.738;2022-07-05T09:29:51;25.80;99.90
9414;DHT22;4746;35.664;139.738;2022-07-05T09:32:26;25.80;99.90
9414;DHT22;4746;35.664;139.738;2022-07-05T09:35:18;25.70;99.90
9414;DHT22;4746;35.664;139.738;2022-07-05T09:37:46;25.70;99.90
9414;DHT22;4746;35.664;139.738;2022-07-05T09:40:13;25.60;99.90
9414;DHT22;4746;35.664;139.738;2022-07-05T09:42:42;25.60;99.90
9414;DHT22;4746;35.664;139.738;2022-07-05T09:45:10;25.50;99.90
9414;DHT22;4746;35.664;139.738;2022-07-05T09:47:37;25.50;99.90
9414;DHT22;4746;35.664;139.738;2022-07-05T09:50:06;25.50;99.90
9414;DHT22;4746;35.664;139.738;2022-07-05T09:52:42;25.60;99.90
9414;DHT22;4746;35.664;139.738;2022-07-05T09:55:15;25.60;99.90
9414;DHT22;4746;35.664;139.738;2022-07-05T09:57:45;25.60;99.90
9414;DHT22;4746;35.664;139.738;2022-07-05T10:00:21;25.60;99.90
9414;DHT22;4746;35.664;139.738;2022-07-05T10:02:54;25.70;99.90
9414;DHT22;4746;35.664;139.738;2022-07-05T10:05:31;25.60;99.90
9414;DHT22;4746;35.664;139.738;2022-07-05T10:08:01;25.60;99.90
9414;DHT22;4746;35.664;139.738;2022-07-05T10:10:31;25.60;99.90
9414;DHT22;4746;35.664;139.738;2022-07-05T10:13:03;25.50;99.90
9414;DHT22;4746;35.664;139.738;2022-07-05T10:15:35;25.50;99.90
9414;DHT22;4746;35.664;139.738;2022-07-05T10:18:13;25.50;99.90
9414;DHT22;4746;35.664;139.738;2022-07-05T10:20:47;25.40;99.90
9414;DHT22;4746;35.664;139.738;2022-07-05T10:23:19;25.40;99.90
9414;DHT22;4746;35.664;139.738;2022-07-05T10:25:49;25.50;99.90
9414;DHT22;4746;35.664;139.738;2022-07-05T10:28:19;25.50;99.90
9414;DHT22;4746;35.664;139.738;2022-07-05T10:30:48;25.50;99.90
9414;DHT22;4746;35.664;139.738;2022-07-05T10:33:20;25.60;99.90
9414;DHT22;4746;35.664;139.738;2022-07-05T10:35:52;25.60;99.90
9414;DHT22;4746;35.664;139.738;2022-07-05T10:38:20;25.70;99.90
9414;DHT22;4746;35.664;139.738;2022-07-05T10:40:53;25.70;99.90
9414;DHT22;4746;35.664;139.738;2022-07-05T10:43:24;25.70;99.90
9414;DHT22;4746;35.664;139.738;2022-07-05T10:45:54;25.80;99.90
9414;DHT22;4746;35.664;139.738;2022-07-05T10:48:24;25.70;99.90
9414;DHT22;4746;35.664;139.738;2022-07-05T10:51:01;25.70;99.90
9414;DHT22;4746;35.664;139.738;2022-07-05T10:56:14;25.60;99.90
9414;DHT22;4746;35.664;139.738;2022-07-05T10:58:46;25.60;99.90
9414;DHT22;4746;35.664;139.738;2022-07-05T11:04:18;25.50;99.90
9414;DHT22;4746;35.664;139.738;2022-07-05T11:06:50;25.60;99.90
9414;DHT22;4746;35.664;139.738;2022-07-05T11:09:19;25.60;99.90
9414;DHT22;4746;35.664;139.738;2022-07-05T11:14:34;25.50;99.90
9414;DHT22;4746;35.664;139.738;2022-07-05T11:22:40;25.40;99.90
9414;DHT22;4746;35.664;139.738;2022-07-05T11:25:32;25.40;99.90
9414;DHT22;4746;35.664;139.738;2022-07-05T11:28:12;25.40;99.90
9414;DHT22;4746;35.664;139.738;2022-07-05T11:30:57;25.40;99.90
9414;DHT22;4746;35.664;139.738;2022-07-05T11:36:23;25.40;99.90
9414;DHT22;4746;35.664;139.738;2022-07-05T11:39:25;25.40;99.90
9414;DHT22;4746;35.664;139.738;2022-07-05T11:41:53;25.40;99.90
9414;DHT22;4746;35.664;139.738;2022-07-05T11:44:20;25.40;99.90
9414;DHT22;4746;35.664;139.738;2022-07-05T11:46:51;25.40;99.90
9414;DHT22;4746;35.664;139.738;2022-07-05T11:49:21;25.40;99.90
9414;DHT22;4746;35.664;139.738;2022-07-05T11:51:58;25.40;99.90
9414;DHT22;4746;35.664;139.738;2022-07-05T11:54:28;25.40;99.90
9414;DHT22;4746;35.664;139.738;2022-07-05T11:56:57;25.40;99.90
9414;DHT22;4746;35.664;139.738;2022-07-05T11:59:28;25.50;99.90
9414;DHT22;4746;35.664;139.738;2022-07-05T12:01:55;25.40;99.90
9414;DHT22;4746;35.664;139.738;2022-07-05T12:04:28;25.50;99.90
9414;DHT22;4746;35.664;139.738;2022-07-05T12:06:58;25.40;99.90
9414;DHT22;4746;35.664;139.738;2022-07-05T12:09:28;25.50;99.90
9414;DHT22;4746;35.664;139.738;2022-07-05T12:12:23;25.50;99.90
9414;DHT22;4746;35.664;139.738;2022-07-05T12:15:14;25.60;99.90
9414;DHT22;4746;35.664;139.738;2022-07-05T12:17:44;25.60;99.90
9414;DHT22;4746;35.664;139.738;2022-07-05T12:20:15;25.70;99.90
9414;DHT22;4746;35.664;139.738;2022-07-05T12:22:49;25.70;99.90
9414;DHT22;4746;35.664;139.738;2022-07-05T12:25:22;25.80;99.90
9414;DHT22;4746;35.664;139.738;2022-07-05T12:27:52;25.90;99.90
9414;DHT22;4746;35.664;139.738;2022-07-05T12:30:22;25.90;99.90
9414;DHT22;4746;35.664;139.738;2022-07-05T12:35:36;26.10;99.90
9414;DHT22;4746;35.664;139.738;2022-07-05T12:38:13;26.20;99.90
9414;DHT22;4746;35.664;139.738;2022-07-05T12:40:45;26.20;99.90
9414;DHT22;4746;35.664;139.738;2022-07-05T12:43:16;26.30;99.90
9414;DHT22;4746;35.664;139.738;2022-07-05T12:48:36;26.50;99.90
9414;DHT22;4746;35.664;139.738;2022-07-05T12:51:09;26.60;99.90
9414;DHT22;4746;35.664;139.738;2022-07-05T12:53:47;26.60;99.90
9414;DHT22;4746;35.664;139.738;2022-07-05T12:56:34;26.60;99.90
9414;DHT22;4746;35.664;139.738;2022-07-05T12:59:20;26.70;99.90
9414;DHT22;4746;35.664;139.738;2022-07-05T13:01:48;26.80;99.90
9414;DHT22;4746;35.664;139.738;2022-07-05T13:04:16;26.90;99.90
9414;DHT22;4746;35.664;139.738;2022-07-05T13:06:49;26.90;99.90
9414;DHT22;4746;35.664;139.738;2022-07-05T13:14:53;27.10;99.90
9414;DHT22;4746;35.664;139.738;2022-07-05T13:17:22;27.10;99.90
9414;DHT22;4746;35.664;139.738;2022-07-05T13:19:51;27.20;99.90
9414;DHT22;4746;35.664;139.738;2022-07-05T13:22:19;27.30;99.90
9414;DHT22;4746;35.664;139.738;2022-07-05T13:24:47;27.40;99.90
9414;DHT22;4746;35.664;139.738;2022-07-05T13:27:14;27.40;99.90
9414;DHT22;4746;35.664;139.738;2022-07-05T13:29:43;27.40;99.90
9414;DHT22;4746;35.664;139.738;2022-07-05T13:32:11;27.40;99.90
9414;DHT22;4746;35.664;139.738;2022-07-05T13:34:38;27.40;99.90
9414;DHT22;4746;35.664;139.738;2022-07-05T13:37:06;27.30;99.90
9414;DHT22;4746;35.664;139.738;2022-07-05T13:39:34;27.20;99.90
9414;DHT22;4746;35.664;139.738;2022-07-05T13:42:01;27.20;99.90
9414;DHT22;4746;35.664;139.738;2022-07-05T13:44:32;27.10;99.90
9414;DHT22;4746;35.664;139.738;2022-07-05T13:46:59;27.10;99.90
9414;DHT22;4746;35.664;139.738;2022-07-05T13:49:27;27.10;99.90
9414;DHT22;4746;35.664;139.738;2022-07-05T13:51:56;27.00;99.90
9414;DHT22;4746;35.664;139.738;2022-07-05T13:54:27;27.00;99.90
9414;DHT22;4746;35.664;139.738;2022-07-05T13:56:55;26.90;99.90
9414;DHT22;4746;35.664;139.738;2022-07-05T13:59:23;26.90;99.90
9414;DHT22;4746;35.664;139.738;2022-07-05T14:01:51;26.90;99.90
9414;DHT22;4746;35.664;139.738;2022-07-05T14:04:18;26.90;99.90
9414;DHT22;4746;35.664;139.738;2022-07-05T14:06:46;26.80;99.90
9414;DHT22;4746;35.664;139.738;2022-07-05T14:09:16;26.80;99.90
9414;DHT22;4746;35.664;139.738;2022-07-05T14:11:44;26.80;99.90
9414;DHT22;4746;35.664;139.738;2022-07-05T14:14:12;26.80;99.90
9414;DHT22;4746;35.664;139.738;2022-07-05T14:16:40;26.80;99.90
9414;DHT22;4746;35.664;139.738;2022-07-05T14:19:08;26.70;99.90
9414;DHT22;4746;35.664;139.738;2022-07-05T14:21:35;26.60;99.90
9414;DHT22;4746;35.664;139.738;2022-07-05T14:24:03;26.60;99.90
9414;DHT22;4746;35.664;139.738;2022-07-05T14:26:32;26.50;99.90
9414;DHT22;4746;35.664;139.738;2022-07-05T14:29:00;26.50;99.90
9414;DHT22;4746;35.664;139.738;2022-07-05T14:31:27;26.50;99.90
9414;DHT22;4746;35.664;139.738;2022-07-05T14:33:57;26.50;99.90
9414;DHT22;4746;35.664;139.738;2022-07-05T14:36:24;26.50;99.90
9414;DHT22;4746;35.664;139.738;2022-07-05T14:38:52;26.50;99.90
9414;DHT22;4746;35.664;139.738;2022-07-05T14:41:20;26.50;99.90
9414;DHT22;4746;35.664;139.738;2022-07-05T14:43:47;26.50;99.90
9414;DHT22;4746;35.664;139.738;2022-07-05T14:46:15;26.50;99.90
9414;DHT22;4746;35.664;139.738;2022-07-05T14:48:44;26.50;99.90
9414;DHT22;4746;35.664;139.738;2022-07-05T14:51:12;26.50;99.90
9414;DHT22;4746;35.664;139.738;2022-07-05T14:53:41;26.40;99.90
9414;DHT22;4746;35.664;139.738;2022-07-05T14:56:10;26.40;99.90
9414;DHT22;4746;35.664;139.738;2022-07-05T14:58:38;26.30;99.90
9414;DHT22;4746;35.664;139.738;2022-07-05T15:01:06;26.20;99.90
9414;DHT22;4746;35.664;139.738;2022-07-05T15:03:34;26.20;99.90
9414;DHT22;4746;35.664;139.738;2022-07-05T15:06:02;26.20;99.90
9414;DHT22;4746;35.664;139.738;2022-07-05T15:08:30;26.10;99.90
9414;DHT22;4746;35.664;139.738;2022-07-05T15:10:58;26.10;99.90
9414;DHT22;4746;35.664;139.738;2022-07-05T15:13:26;26.00;99.90
9414;DHT22;4746;35.664;139.738;2022-07-05T15:15:54;26.00;99.90
9414;DHT22;4746;35.664;139.738;2022-07-05T15:18:25;26.00;99.90
9414;DHT22;4746;35.664;139.738;2022-07-05T15:20:53;26.00;99.90
9414;DHT22;4746;35.664;139.738;2022-07-05T15:23:21;26.00;99.90
9414;DHT22;4746;35.664;139.738;2022-07-05T15:25:57;26.00;99.90
9414;DHT22;4746;35.664;139.738;2022-07-05T15:28:25;25.90;99.90
9414;DHT22;4746;35.664;139.738;2022-07-05T15:30:53;25.90;99.90
9414;DHT22;4746;35.664;139.738;2022-07-05T15:33:22;25.90;99.90
9414;DHT22;4746;35.664;139.738;2022-07-05T15:35:55;25.90;99.90
9414;DHT22;4746;35.664;139.738;2022-07-05T15:38:26;25.80;99.90
9414;DHT22;4746;35.664;139.738;2022-07-05T15:40:54;25.80;99.90
9414;DHT22;4746;35.664;139.738;2022-07-05T15:43:23;25.80;99.90
9414;DHT22;4746;35.664;139.738;2022-07-05T15:45:54;25.80;99.90
9414;DHT22;4746;35.664;139.738;2022-07-05T15:48:22;25.70;99.90
9414;DHT22;4746;35.664;139.738;2022-07-05T15:50:51;25.70;99.90
9414;DHT22;4746;35.664;139.738;2022-07-05T15:53:20;25.70;99.90
9414;DHT22;4746;35.664;139.738;2022-07-05T15:55:47;25.70;99.90
9414;DHT22;4746;35.664;139.738;2022-07-05T15:58:15;25.70;99.90
9414;DHT22;4746;35.664;139.738;2022-07-05T16:00:42;25.70;99.90
9414;DHT22;4746;35.664;139.738;2022-07-05T16:03:11;25.60;99.90
9414;DHT22;4746;35.664;139.738;2022-07-05T16:05:38;25.60;99.90
9414;DHT22;4746;35.664;139.738;2022-07-05T16:08:06;25.60;99.90
9414;DHT22;4746;35.664;139.738;2022-07-05T16:10:33;25.60;99.90
9414;DHT22;4746;35.664;139.738;2022-07-05T16:13:02;25.50;99.90
9414;DHT22;4746;35.664;139.738;2022-07-05T16:15:30;25.50;99.90